Time;durP1;ratioP1;P1;durP2;ratioP2;P2;SDS_P1;SDS_P2;PMS_P1;PMS_P2;Temp;Humidity;BMP_temperature;BMP_pressure;BME280_temperature;BME280_humidity;BME280_pressure;Samples;Min_cycle;Max_cycle;Signal;HPM_P1;HPM_P2
2022/05/21 00:00:03;;;;;;;11.07;7.80;;;;;;;13.44;77.11;101998.13;5077625;28;20036;-51
2022/05/21 00:02:29;;;;;;;10.70;7.72;;;;;;;13.42;77.49;101999.78;5077274;28;20079;-48
2022/05/21 00:04:54;;;;;;;8.75;7.60;;;;;;;13.49;77.32;102000.88;5077110;28;20541;-48
2022/05/21 00:07:20;;;;;;;13.32;7.30;;;;;;;13.45;77.71;102001.59;5078521;28;20032;-47
2022/05/21 00:09:45;;;;;;;10.45;7.38;;;;;;;13.46;77.23;101990.41;5075349;28;20496;-52
2022/05/21 00:12:11;;;;;;;13.32;7.82;;;;;;;13.50;77.68;102002.63;5073362;28;20048;-49
2022/05/21 00:14:36;;;;;;;13.02;7.93;;;;;;;13.50;77.10;101998.34;5078633;28;20032;-46
2022/05/21 00:17:02;;;;;;;11.82;7.45;;;;;;;13.44;77.53;102003.28;5077747;28;20136;-51
2022/05/21 00:19:28;;;;;;;11.30;7.47;;;;;;;13.49;77.32;102008.63;5079254;28;20060;-50
2022/05/21 00:21:53;;;;;;;13.80;7.65;;;;;;;13.46;77.52;102013.66;5078885;28;20071;-52
2022/05/21 00:24:18;;;;;;;9.35;7.13;;;;;;;13.47;77.29;101999.91;5077649;28;20160;-51
2022/05/21 00:26:44;;;;;;;9.80;7.18;;;;;;;13.43;77.59;102005.84;5081081;28;20039;-49
2022/05/21 00:29:09;;;;;;;9.98;6.93;;;;;;;13.45;77.71;102005.03;5077244;28;20028;-48
2022/05/21 00:31:36;;;;;;;10.40;6.72;;;;;;;13.46;77.30;101999.03;5076802;28;20077;-51
2022/05/21 00:34:02;;;;;;;10.07;6.78;;;;;;;13.47;77.36;102002.50;5077498;28;21080;-51
2022/05/21 00:36:29;;;;;;;10.82;6.70;;;;;;;13.44;77.71;102003.28;5074675;28;20031;-51
2022/05/21 00:38:55;;;;;;;8.73;6.30;;;;;;;13.49;77.60;102001.75;5079240;28;20122;-48
2022/05/21 00:41:21;;;;;;;11.75;6.50;;;;;;;13.48;77.01;102007.75;5077642;28;20020;-49
2022/05/21 00:43:55;;;;;;;10.05;6.50;;;;;;;13.51;77.59;102006.97;5077734;28;20074;-46
2022/05/21 00:46:27;;;;;;;8.80;6.40;;;;;;;13.51;77.92;102006.97;5076321;28;20036;-47
2022/05/21 00:49:06;;;;;;;10.63;6.10;;;;;;;13.55;77.20;102007.13;5080632;28;20481;-50
2022/05/21 00:51:45;;;;;;;7.90;5.90;;;;;;;13.58;77.38;102007.22;5074580;28;20077;-47
2022/05/21 00:54:11;;;;;;;;;;;;;;;13.73;76.61;102014.63;5076198;28;20042;-46
2022/05/21 00:56:46;;;;;;;11.73;5.65;;;;;;;13.59;77.15;102016.75;5079637;28;19924;-49
2022/05/21 01:02:00;;;;;;;10.52;5.50;;;;;;;13.59;77.28;102002.91;5079428;28;20557;-50
2022/05/21 01:04:26;;;;;;;;;;;;;;;13.78;76.55;102013.06;5074523;22;20061;-70
2022/05/21 01:06:54;;;;;;;7.53;4.75;;;;;;;13.61;77.03;102001.28;5013668;28;19928;-69
2022/05/21 01:09:19;;;;;;;9.10;5.10;;;;;;;13.58;77.35;102009.81;5002178;28;20036;-70
2022/05/21 01:11:45;;;;;;;10.98;5.10;;;;;;;13.59;77.25;102002.91;5019101;28;20029;-69
2022/05/21 01:14:11;;;;;;;8.52;4.50;;;;;;;13.58;77.89;102001.16;5018142;28;20963;-70
2022/05/21 01:16:38;;;;;;;9.75;5.07;;;;;;;13.59;77.28;102002.91;5016410;28;20021;-70
2022/05/21 01:19:08;;;;;;;8.63;4.65;;;;;;;13.65;77.43;102005.72;5021542;28;20029;-69
2022/05/21 01:21:35;;;;;;;9.20;4.53;;;;;;;13.60;77.25;102004.72;5022497;28;20149;-69
2022/05/21 01:24:01;;;;;;;6.80;4.20;;;;;;;13.57;77.20;101996.84;5020932;28;20080;-69
2022/05/21 01:26:27;;;;;;;12.23;4.80;;;;;;;13.55;77.55;102001.97;5020554;28;20030;-70
2022/05/21 01:28:53;;;;;;;7.45;4.10;;;;;;;13.54;77.41;101996.75;5015187;28;20046;-70
2022/05/21 01:31:19;;;;;;;8.07;4.05;;;;;;;13.60;77.58;102004.72;5019369;28;20027;-70
2022/05/21 01:33:44;;;;;;;9.00;4.40;;;;;;;13.59;77.61;102003.84;5021674;28;20024;-69
2022/05/21 01:36:13;;;;;;;7.45;3.90;;;;;;;13.56;77.19;101995.97;5023286;28;20030;-69
2022/05/21 01:38:39;;;;;;;13.50;4.68;;;;;;;13.58;77.91;102002.03;5014054;28;20124;-69
2022/05/21 01:41:07;;;;;;;10.27;4.35;;;;;;;13.59;77.91;101997.75;5023806;28;20112;-69
2022/05/21 01:46:17;;;;;;;10.88;4.30;;;;;;;13.61;77.04;101991.81;5020592;28;20091;-69
2022/05/21 01:48:43;;;;;;;8.27;3.80;;;;;;;13.61;77.40;101993.53;5018236;28;20041;-70
2022/05/21 01:51:09;;;;;;;10.20;4.20;;;;;;;13.58;77.45;101999.47;5021439;28;20112;-69
2022/05/21 01:53:37;;;;;;;8.98;4.30;;;;;;;13.63;77.85;102003.09;5019995;28;20091;-70
2022/05/21 01:56:03;;;;;;;7.35;3.75;;;;;;;13.62;77.59;101988.41;5024745;28;20035;-70
2022/05/21 01:58:29;;;;;;;6.85;3.65;;;;;;;13.53;77.43;101993.28;5018643;28;20065;-69
2022/05/21 02:00:55;;;;;;;11.88;4.18;;;;;;;13.54;78.47;102001.91;5021008;28;20046;-70
2022/05/21 02:03:22;;;;;;;10.63;4.40;;;;;;;13.57;78.65;102004.59;5019699;28;20201;-70
2022/05/21 02:05:47;;;;;;;10.57;3.97;;;;;;;13.56;78.23;101998.53;5017563;28;20095;-69
2022/05/21 02:08:14;;;;;;;9.75;4.40;;;;;;;13.62;78.26;102000.47;5019232;28;20033;-70
2022/05/21 02:10:41;;;;;;;9.38;4.60;;;;;;;13.61;78.28;102006.47;5019981;28;20723;-69
2022/05/21 02:13:07;;;;;;;12.38;5.40;;;;;;;13.60;78.33;102005.59;5019363;28;20025;-69
2022/05/21 02:15:32;;;;;;;11.30;4.85;;;;;;;13.60;78.46;102003.00;5018641;28;20036;-70
2022/05/21 02:17:58;;;;;;;10.35;5.20;;;;;;;13.63;78.35;102004.78;5021028;28;20029;-70
2022/05/21 02:20:23;;;;;;;10.73;5.30;;;;;;;13.62;78.16;102011.66;5020299;28;20104;-69
2022/05/21 02:22:49;;;;;;;14.93;5.97;;;;;;;13.64;78.38;102015.19;5023326;28;20123;-70
2022/05/21 02:25:16;;;;;;;11.48;5.45;;;;;;;13.62;78.42;102013.38;5025139;28;20061;-69
2022/05/21 02:27:42;;;;;;;12.52;5.72;;;;;;;13.60;78.58;102005.59;5028437;28;20032;-69
2022/05/21 02:30:08;;;;;;;10.27;5.57;;;;;;;13.58;78.89;102001.16;5020979;28;20144;-69
2022/05/21 02:32:34;;;;;;;12.35;5.97;;;;;;;13.63;78.50;102010.84;5023315;28;20030;-69
2022/05/21 02:34:59;;;;;;;14.60;6.47;;;;;;;13.61;79.08;102009.03;5021397;28;20037;-70
2022/05/21 02:40:09;;;;;;;13.80;6.38;;;;;;;13.56;79.36;101993.38;5021623;28;20055;-69
2022/05/21 02:42:43;;;;;;;15.13;6.68;;;;;;;13.58;79.41;101998.59;5022813;28;20033;-69
2022/05/21 02:45:11;;;;;;;17.77;6.57;;;;;;;13.61;79.26;101997.00;5022885;28;20057;-69
2022/05/21 02:47:37;;;;;;;12.45;6.30;;;;;;;13.61;79.19;101997.00;5022417;28;20125;-69
2022/05/21 02:50:03;;;;;;;13.68;6.03;;;;;;;13.61;79.06;101998.72;5019971;28;20033;-69
2022/05/21 02:52:29;;;;;;;13.23;6.00;;;;;;;13.63;79.03;102000.50;5020678;28;20040;-70
2022/05/21 02:54:54;;;;;;;11.38;6.25;;;;;;;13.62;79.04;102003.03;5023827;28;20041;-70
2022/05/21 02:57:20;;;;;;;14.98;6.65;;;;;;;13.63;80.07;102002.22;5022179;28;20044;-69
2022/05/21 02:59:48;;;;;;;14.75;6.63;;;;;;;13.64;79.23;102001.38;5022496;28;20044;-69
2022/05/21 03:02:14;;;;;;;13.38;6.78;;;;;;;13.66;79.12;102015.25;5023770;28;20029;-69
2022/05/21 03:04:39;;;;;;;17.63;7.15;;;;;;;13.61;80.27;102004.75;5015770;28;20531;-70
2022/05/21 03:07:05;;;;;;;12.93;6.55;;;;;;;13.66;79.23;101992.00;5016964;28;20922;-70
2022/05/21 03:12:14;;;;;;;13.05;7.00;;;;;;;13.65;79.42;102005.72;5021242;28;20064;-69
2022/05/21 03:14:39;;;;;;;17.15;7.18;;;;;;;13.65;79.70;102004.03;5023133;28;20080;-69
2022/05/21 03:17:05;;;;;;;13.70;7.32;;;;;;;13.67;79.03;102009.25;5019800;28;20037;-69
2022/05/21 03:19:33;;;;;;;16.40;7.28;;;;;;;13.66;79.80;101994.56;5021812;28;20079;-69
2022/05/21 03:21:59;;;;;;;14.13;6.65;;;;;;;13.66;80.15;101994.56;5021527;28;20038;-69
2022/05/21 03:24:26;;;;;;;15.23;7.13;;;;;;;13.66;79.91;101994.56;5025067;28;20132;-69
2022/05/21 03:26:51;;;;;;;12.77;7.50;;;;;;;13.69;80.10;102000.72;5025438;28;20025;-69
2022/05/21 03:29:17;;;;;;;17.27;8.18;;;;;;;13.67;79.53;101991.16;5017036;28;20037;-69
2022/05/21 03:31:42;;;;;;;16.38;8.23;;;;;;;13.72;80.05;101993.91;5020998;28;20040;-69
2022/05/21 03:34:08;;;;;;;18.85;8.10;;;;;;;13.68;79.77;102004.13;5024714;28;20099;-69
2022/05/21 03:36:34;;;;;;;13.73;7.97;;;;;;;13.63;80.34;102003.09;5022527;28;20619;-69
2022/05/21 03:38:59;;;;;;;20.48;8.07;;;;;;;13.65;80.58;102008.28;5019404;28;20037;-70
2022/05/21 03:41:26;;;;;;;18.55;8.27;;;;;;;13.68;80.33;102005.84;5022142;28;20645;-69
2022/05/21 03:43:52;;;;;;;16.67;8.10;;;;;;;13.67;80.07;102004.09;5017602;28;20810;-70
2022/05/21 03:46:18;;;;;;;17.50;9.35;;;;;;;13.65;80.46;102000.53;5026276;28;20184;-69
2022/05/21 03:48:45;;;;;;;16.20;8.85;;;;;;;13.70;80.29;102011.91;5018392;28;20030;-70
2022/05/21 03:51:11;;;;;;;21.50;9.75;;;;;;;13.68;80.00;102009.28;5021432;28;20104;-69
2022/05/21 03:53:36;;;;;;;20.38;9.60;;;;;;;13.68;80.44;102014.47;5021064;28;20049;-69
2022/05/21 03:56:03;;;;;;;20.23;8.93;;;;;;;13.70;80.40;102009.34;5022862;28;20071;-69
2022/05/21 03:58:29;;;;;;;16.55;8.63;;;;;;;13.68;80.62;102011.88;5021603;28;20036;-69
2022/05/21 04:00:55;;;;;;;18.23;8.80;;;;;;;13.69;80.22;102013.63;5023375;28;20025;-70
2022/05/21 04:03:20;;;;;;;16.85;8.73;;;;;;;13.75;80.34;102020.72;5022048;28;20422;-69
2022/05/21 04:05:47;;;;;;;19.08;9.50;;;;;;;13.74;80.33;102021.53;5016552;28;20124;-70
2022/05/21 04:08:15;;;;;;;15.68;9.05;;;;;;;13.73;80.44;102017.22;5014684;28;20045;-70
2022/05/21 04:10:40;;;;;;;18.20;9.18;;;;;;;13.68;80.30;102014.47;5017745;28;20033;-70
2022/05/21 04:13:06;;;;;;;17.38;8.80;;;;;;;13.73;80.63;102021.50;5019787;28;20499;-69
2022/05/21 04:15:32;;;;;;;23.80;9.73;;;;;;;13.75;81.08;102019.84;5019943;28;20546;-69
2022/05/21 04:17:57;;;;;;;18.25;8.75;;;;;;;13.76;80.61;102019.88;5020619;28;20112;-69
2022/05/21 04:20:23;;;;;;;21.30;9.23;;;;;;;13.79;80.37;102035.50;5023772;28;20517;-70
2022/05/21 04:22:49;;;;;;;18.77;9.13;;;;;;;13.79;80.57;102032.94;5019829;28;20041;-70
2022/05/21 04:25:15;;;;;;;15.95;8.60;;;;;;;13.76;80.29;102029.34;5023567;28;20041;-69
2022/05/21 04:27:41;;;;;;;18.10;8.73;;;;;;;13.76;80.20;102026.75;5024482;28;20088;-70
2022/05/21 04:30:10;;;;;;;21.55;9.27;;;;;;;13.79;81.15;102037.22;5019900;28;20067;-69
2022/05/21 04:32:36;;;;;;;25.02;8.70;;;;;;;13.80;80.35;102039.84;5016305;28;20033;-69
2022/05/21 04:35:02;;;;;;;21.02;8.20;;;;;;;13.81;80.49;102040.72;5017354;28;20066;-69
2022/05/21 04:37:27;;;;;;;23.90;8.98;;;;;;;13.83;80.13;102037.38;5022427;28;20026;-69
2022/05/21 04:39:52;;;;;;;24.35;8.52;;;;;;;13.82;80.15;102039.88;5017530;28;20034;-69
2022/05/21 04:42:18;;;;;;;19.75;8.90;;;;;;;13.78;80.69;102036.34;5018546;28;20037;-69
2022/05/21 04:44:43;;;;;;;30.33;9.27;;;;;;;13.78;80.33;102040.63;5022483;28;20087;-69
2022/05/21 04:47:08;;;;;;;25.70;9.43;;;;;;;13.75;80.11;102043.09;5017965;28;20021;-69
2022/05/21 04:49:35;;;;;;;29.05;9.15;;;;;;;13.79;80.45;102047.56;5021626;28;20526;-69
2022/05/21 04:52:04;;;;;;;21.75;8.25;;;;;;;13.81;80.67;102049.34;5020556;28;20025;-69
2022/05/21 04:54:29;;;;;;;;;;;;;;;13.96;79.59;102041.25;5020017;28;20032;-70
2022/05/21 04:56:55;;;;;;;19.73;7.47;;;;;;;13.86;80.14;102050.41;5022614;28;20007;-70
2022/05/21 04:59:20;;;;;;;24.05;8.68;;;;;;;13.86;80.32;102050.41;5021162;28;21059;-69
2022/05/21 05:01:46;;;;;;;20.08;8.32;;;;;;;13.85;80.76;102050.34;5022920;28;20045;-69
2022/05/21 05:04:12;;;;;;;21.15;7.82;;;;;;;13.92;80.41;102068.69;5019927;28;20040;-69
2022/05/21 05:06:38;;;;;;;21.35;8.13;;;;;;;13.91;80.58;102066.06;5021129;28;20044;-70
2022/05/21 05:09:05;;;;;;;23.35;7.63;;;;;;;13.92;80.49;102050.59;5021948;28;20033;-69
2022/05/21 05:11:31;;;;;;;22.20;7.65;;;;;;;13.98;80.87;102061.97;5019996;28;20033;-69
2022/05/21 05:13:56;;;;;;;18.63;7.68;;;;;;;13.92;80.44;102055.78;5014953;28;20041;-70
2022/05/21 05:16:21;;;;;;;20.85;7.38;;;;;;;13.94;81.29;102064.44;5020016;28;20068;-69
2022/05/21 05:18:47;;;;;;;23.35;8.15;;;;;;;13.99;80.85;102071.50;5026085;28;20043;-69
2022/05/21 05:21:12;;;;;;;22.45;8.32;;;;;;;13.99;80.55;102071.50;5019696;28;20503;-70
2022/05/21 05:23:37;;;;;;;18.92;8.15;;;;;;;13.93;80.74;102078.22;5025478;28;20048;-70
2022/05/21 05:26:03;;;;;;;21.13;7.78;;;;;;;13.99;80.70;102079.25;5016380;28;20519;-69
2022/05/21 05:28:29;;;;;;;20.08;7.95;;;;;;;14.01;80.48;102085.34;5024849;28;20036;-70
2022/05/21 05:30:55;;;;;;;21.08;7.97;;;;;;;13.98;80.94;102085.25;5025153;28;20446;-70
2022/05/21 05:33:22;;;;;;;20.30;7.80;;;;;;;13.99;80.89;102082.72;5025504;28;20082;-70
2022/05/21 05:35:52;;;;;;;23.15;8.30;;;;;;;14.02;80.89;102088.00;5021128;28;20132;-70
2022/05/21 05:38:18;;;;;;;20.45;7.40;;;;;;;14.04;81.00;102090.63;5020216;28;20034;-70
2022/05/21 05:40:46;;;;;;;19.73;7.88;;;;;;;14.12;80.55;102087.47;5025195;28;20029;-70
2022/05/21 05:43:15;;;;;;;24.35;7.82;;;;;;;14.13;80.50;102096.97;5022846;28;20036;-70
2022/05/21 05:45:40;;;;;;;20.88;7.88;;;;;;;14.18;80.68;102089.38;5014123;28;20132;-69
2022/05/21 05:48:06;;;;;;;22.58;8.57;;;;;;;14.22;80.32;102101.59;5021638;28;20083;-69
2022/05/21 05:50:31;;;;;;;21.00;8.38;;;;;;;14.25;80.06;102093.91;5022258;28;20059;-69
2022/05/21 05:53:04;;;;;;;22.30;7.93;;;;;;;14.31;79.91;102096.69;5019244;28;20430;-70
2022/05/21 05:55:32;;;;;;;24.90;7.88;;;;;;;14.33;79.85;102087.28;5014584;28;20491;-69
2022/05/21 05:57:58;;;;;;;19.85;8.10;;;;;;;14.44;80.49;102087.63;5016750;28;20029;-70
2022/05/21 06:00:25;;;;;;;22.38;7.97;;;;;;;14.56;80.11;102090.66;5018912;28;20037;-70
2022/05/21 06:03:01;;;;;;;19.33;7.45;;;;;;;14.67;79.23;102088.38;5021102;28;20025;-69
2022/05/21 06:05:32;;;;;;;22.00;8.13;;;;;;;14.69;78.89;102086.72;5014379;28;20057;-70
2022/05/21 06:08:00;;;;;;;25.60;7.72;;;;;;;14.73;78.40;102091.16;5018935;28;20424;-70
2022/05/21 06:10:45;;;;;;;21.88;7.75;;;;;;;14.79;78.67;102090.44;5016048;28;20366;-70
2022/05/21 06:13:11;;;;;;;23.83;7.55;;;;;;;14.74;78.28;102098.06;5017788;28;20164;-70
2022/05/21 06:15:38;;;;;;;20.17;7.75;;;;;;;14.85;78.20;102104.47;5015322;28;20124;-70
2022/05/21 06:18:13;;;;;;;24.05;8.25;;;;;;;14.95;78.38;102101.31;5013606;28;20393;-70
2022/05/21 06:20:39;;;;;;;22.92;8.02;;;;;;;14.99;77.50;102098.00;5017726;28;20033;-69
2022/05/21 06:23:05;;;;;;;25.88;8.75;;;;;;;14.96;78.79;102115.16;5016772;28;20075;-69
2022/05/21 06:25:33;;;;;;;26.23;8.57;;;;;;;14.89;77.57;102106.31;5009114;28;20101;-70
2022/05/21 06:28:00;;;;;;;24.10;8.02;;;;;;;14.91;77.76;102111.53;5009341;28;20064;-70
2022/05/21 06:30:27;;;;;;;22.60;7.55;;;;;;;14.90;77.19;102112.38;5013468;28;20018;-70
2022/05/21 06:32:54;;;;;;;20.13;8.07;;;;;;;14.81;77.11;102115.59;5024823;28;20026;-70
2022/05/21 06:35:20;;;;;;;22.80;8.05;;;;;;;14.88;77.29;102121.81;5015802;28;20087;-69
2022/05/21 06:37:45;;;;;;;16.33;7.47;;;;;;;14.86;77.21;102119.16;5021128;28;20059;-70
2022/05/21 06:40:13;;;;;;;23.25;7.80;;;;;;;15.01;77.45;102123.94;5017657;28;20041;-70
2022/05/21 06:42:39;;;;;;;20.95;7.47;;;;;;;15.07;77.35;102112.88;5018660;28;20086;-69
2022/05/21 06:45:05;;;;;;;28.98;9.90;;;;;;;15.18;76.91;102124.44;5019651;28;20052;-69
2022/05/21 06:47:31;;;;;;;17.88;7.25;;;;;;;15.21;76.15;102121.94;5019800;28;20696;-70
2022/05/21 06:49:59;;;;;;;26.45;8.25;;;;;;;15.23;75.52;102130.66;5020095;28;20388;-70
2022/05/21 06:52:25;;;;;;;21.65;7.82;;;;;;;15.23;75.88;102135.84;5018502;28;20577;-70
2022/05/21 06:54:51;;;;;;;20.52;7.72;;;;;;;15.23;76.92;102126.34;5013067;28;20128;-70
2022/05/21 06:57:18;;;;;;;24.92;9.25;;;;;;;15.26;77.12;102131.59;5010562;28;20436;-70
2022/05/21 06:59:44;;;;;;;20.88;8.02;;;;;;;15.25;77.15;102136.75;5013651;28;20033;-71
2022/05/21 07:02:09;;;;;;;23.92;7.53;;;;;;;15.24;75.55;102132.41;5032190;28;20040;-70
2022/05/21 07:07:34;;;;;;;23.25;7.90;;;;;;;15.31;77.03;102136.03;5008600;28;20095;-70
2022/05/21 07:10:04;;;;;;;26.50;8.25;;;;;;;15.29;76.48;102144.66;5014175;28;20034;-70
2022/05/21 07:12:31;;;;;;;22.88;8.05;;;;;;;15.28;75.37;102134.22;5015602;28;20029;-70
2022/05/21 07:14:56;;;;;;;21.90;7.35;;;;;;;15.29;75.51;102134.28;5013734;28;20029;-70
2022/05/21 07:17:22;;;;;;;20.98;7.40;;;;;;;15.35;75.56;102138.78;5012082;28;20072;-70
2022/05/21 07:19:47;;;;;;;21.48;7.10;;;;;;;15.42;75.05;102150.19;5014849;28;20513;-70
2022/05/21 07:22:13;;;;;;;19.60;7.55;;;;;;;15.43;74.55;102159.72;5014476;28;20042;-70
2022/05/21 07:24:42;;;;;;;20.48;7.75;;;;;;;15.46;74.76;102155.50;5023104;28;20029;-70
2022/05/21 07:27:09;;;;;;;24.23;7.20;;;;;;;15.46;74.77;102160.66;5010276;28;24639;-70
2022/05/21 07:29:42;;;;;;;14.73;6.13;;;;;;;15.47;74.54;102161.53;5016826;28;20400;-71
2022/05/21 07:32:18;;;;;;;21.50;6.22;;;;;;;15.51;74.14;102161.69;5013696;28;20021;-71
2022/05/21 07:34:43;;;;;;;19.63;5.40;;;;;;;15.49;73.07;102159.91;5010301;28;20071;-71
2022/05/21 07:37:09;;;;;;;20.63;5.47;;;;;;;15.54;73.29;102169.56;5012577;28;20030;-70
2022/05/21 07:39:34;;;;;;;19.08;6.18;;;;;;;15.57;73.69;102160.97;5013776;28;20128;-71
2022/05/21 07:41:59;;;;;;;20.45;6.47;;;;;;;15.52;73.50;102160.84;5022098;28;20056;-71
2022/05/21 07:44:25;;;;;;;15.98;6.38;;;;;;;15.61;74.20;102170.63;5014582;28;20095;-70
2022/05/21 07:46:50;;;;;;;17.67;5.93;;;;;;;15.64;73.12;102165.53;5015898;28;20045;-70
2022/05/21 07:49:16;;;;;;;20.65;5.65;;;;;;;15.71;73.41;102167.50;5018892;28;20038;-71
2022/05/21 07:51:41;;;;;;;20.80;5.90;;;;;;;15.80;72.83;102179.81;5019402;28;20420;-71
2022/05/21 07:54:07;;;;;;;22.38;6.18;;;;;;;15.77;72.04;102178.03;5019259;28;20045;-71
2022/05/21 07:56:33;;;;;;;16.35;5.95;;;;;;;15.87;72.09;102183.44;5013853;28;20503;-71
2022/05/21 07:58:58;;;;;;;15.40;4.85;;;;;;;15.95;70.91;102190.59;5013917;28;20045;-71
2022/05/21 08:01:23;;;;;;;17.05;5.43;;;;;;;15.93;70.54;102179.31;5015290;28;20083;-71
2022/05/21 08:03:49;;;;;;;17.05;5.28;;;;;;;16.01;71.75;102177.78;5024064;28;20466;-71
2022/05/21 08:06:15;;;;;;;19.27;5.68;;;;;;;16.20;71.71;102178.25;5009137;28;20064;-71
2022/05/21 08:08:41;;;;;;;16.65;5.45;;;;;;;16.28;71.24;102174.16;5018263;28;20033;-71
2022/05/21 08:11:06;;;;;;;16.83;4.90;;;;;;;16.27;70.42;102183.69;5012937;28;20021;-71
2022/05/21 08:13:34;;;;;;;15.40;5.35;;;;;;;16.35;70.48;102192.53;5022937;28;20021;-71
2022/05/21 08:16:00;;;;;;;17.10;5.25;;;;;;;16.38;69.63;102193.44;5024643;28;20045;-71
2022/05/21 08:18:27;;;;;;;17.90;5.05;;;;;;;16.51;69.55;102187.75;5016518;28;20041;-71
2022/05/21 08:20:53;;;;;;;17.52;5.00;;;;;;;16.65;70.58;102195.84;5022233;28;20423;-70
2022/05/21 08:28:47;;;;;;;15.07;5.00;;;;;;;16.55;68.34;102185.22;5026371;28;20045;-72
2022/05/21 08:31:13;;;;;;;17.67;5.70;;;;;;;16.63;69.02;102185.44;5024343;28;20037;-74
2022/05/21 08:33:38;;;;;;;19.50;5.80;;;;;;;16.73;69.72;102191.75;5024366;28;20356;-73
2022/05/21 08:36:04;;;;;;;14.85;4.25;;;;;;;16.75;68.19;102172.78;5020863;28;20037;-75
2022/05/21 08:38:30;;;;;;;17.05;4.68;;;;;;;16.86;68.82;102179.06;5028690;28;20094;-74
2022/05/21 08:41:09;;;;;;;18.23;4.68;;;;;;;16.98;68.63;102193.19;5024574;28;20391;-75
2022/05/21 08:44:08;;;;;;;13.60;4.03;;;;;;;16.99;68.54;102188.06;5020001;28;20034;-73
2022/05/21 08:46:58;;;;;;;10.50;3.22;;;;;;;16.95;67.30;102194.00;5020979;28;20064;-74
2022/05/21 08:49:30;;;;;;;12.80;3.85;;;;;;;16.96;66.09;102190.56;5020487;28;20044;-70
2022/05/21 08:52:04;;;;;;;14.18;4.90;;;;;;;16.98;65.70;102194.06;5023500;28;20033;-69
2022/05/21 08:54:34;;;;;;;14.32;3.90;;;;;;;17.01;65.64;102188.97;5019463;28;20030;-69
2022/05/21 08:57:02;;;;;;;17.67;4.22;;;;;;;16.94;65.84;102184.47;5021445;28;20037;-70
2022/05/21 08:59:35;;;;;;;14.10;4.05;;;;;;;16.96;67.69;102184.50;5014781;28;20036;-69
2022/05/21 09:02:01;;;;;;;19.52;5.38;;;;;;;16.93;66.95;102177.53;5023361;28;20025;-70
2022/05/21 09:04:29;;;;;;;15.70;4.53;;;;;;;17.03;67.53;102182.06;5023495;28;20031;-69
2022/05/21 09:07:00;;;;;;;16.23;5.40;;;;;;;17.27;68.60;102173.06;5028828;28;20038;-70
2022/05/21 09:09:59;;;;;;;15.50;4.57;;;;;;;17.45;67.76;102168.25;5017342;28;20483;-69
2022/05/21 09:12:39;;;;;;;17.92;3.63;;;;;;;17.64;65.09;102169.47;5016786;28;20064;-70
2022/05/21 09:15:07;;;;;;;13.10;3.03;;;;;;;17.77;63.84;102174.09;5029411;28;20471;-70
2022/05/21 09:17:42;;;;;;;11.93;2.95;;;;;;;17.78;65.64;102162.88;5026611;28;20525;-76
2022/05/21 09:20:18;;;;;;;16.45;4.82;;;;;;;17.80;65.35;102175.91;5021100;28;20420;-70
2022/05/21 09:22:53;;;;;;;16.80;5.55;;;;;;;17.77;66.27;102175.84;5026274;28;20124;-76
2022/05/21 09:25:22;;;;;;;19.40;6.63;;;;;;;17.61;66.60;102183.31;5021784;28;20033;-73
2022/05/21 09:27:59;;;;;;;15.25;5.13;;;;;;;17.73;66.30;102180.13;5021315;28;20051;-74
2022/05/21 09:30:26;;;;;;;12.93;4.20;;;;;;;17.85;63.83;102171.66;5023588;28;20081;-73
2022/05/21 09:32:56;;;;;;;12.27;3.75;;;;;;;18.03;65.06;102173.75;5016901;28;20160;-72
2022/05/21 09:35:33;;;;;;;14.32;3.42;;;;;;;18.20;64.58;102162.78;5020677;28;20025;-71
2022/05/21 09:38:13;;;;;;;17.00;3.78;;;;;;;18.35;63.18;102175.16;5017664;28;20660;-70
2022/05/21 09:40:39;;;;;;;11.07;2.60;;;;;;;18.27;59.72;102173.28;5016442;28;20411;-71
2022/05/21 09:46:15;;;;;;;14.05;2.67;;;;;;;18.13;59.26;102184.31;5024610;28;20128;-69
2022/05/21 09:48:40;;;;;;;11.60;2.30;;;;;;;17.98;60.14;102189.25;5022846;28;20044;-69
2022/05/21 09:51:19;;;;;;;12.45;3.10;;;;;;;18.01;62.13;102196.25;5024381;28;20020;-71
2022/05/21 09:53:44;;;;;;;11.27;3.58;;;;;;;18.00;62.36;102195.38;5015675;28;20484;-72
2022/05/21 09:56:33;;;;;;;15.63;4.18;;;;;;;18.12;62.39;102197.31;5020568;28;20041;-71
2022/05/21 09:59:16;;;;;;;11.55;3.63;;;;;;;18.09;62.12;102185.13;5015697;28;20404;-71
2022/05/21 10:01:47;;;;;;;13.93;3.45;;;;;;;18.11;61.85;102187.75;5018854;28;20045;-72
2022/05/21 10:04:19;;;;;;;13.80;3.15;;;;;;;18.12;60.93;102192.97;5021545;28;20468;-71
2022/05/21 10:06:54;;;;;;;9.68;3.35;;;;;;;18.17;61.08;102191.34;5017957;28;20057;-73
2022/05/21 10:12:26;;;;;;;12.50;3.40;;;;;;;18.45;60.54;102186.63;5019442;28;20044;-71
2022/05/21 10:14:59;;;;;;;15.20;3.70;;;;;;;18.36;60.74;102194.28;5007877;28;20030;-71
2022/05/21 10:17:32;;;;;;;13.60;3.42;;;;;;;18.30;60.45;102197.66;5008802;28;20040;-71
2022/05/21 10:20:20;;;;;;;14.10;4.10;;;;;;;18.21;60.35;102193.16;5006550;28;20053;-72
2022/05/21 10:23:08;;;;;;;13.35;3.97;;;;;;;18.20;60.65;102191.41;5000026;28;20163;-74
2022/05/21 10:25:52;;;;;;;14.18;3.00;;;;;;;18.23;60.72;102185.38;5008935;28;20117;-73
2022/05/21 10:28:38;;;;;;;11.95;3.60;;;;;;;18.23;61.06;102185.38;5023543;28;20030;-73
2022/05/21 10:31:36;;;;;;;12.05;3.47;;;;;;;18.29;61.12;102185.47;5021567;28;20045;-71
2022/05/21 10:34:04;;;;;;;13.85;3.38;;;;;;;18.19;60.54;102184.44;4993083;28;20052;-67
2022/05/21 10:36:50;;;;;;;10.65;3.10;;;;;;;18.10;59.82;102199.91;5022164;28;20128;-67
2022/05/21 10:39:46;;;;;;;13.90;3.33;;;;;;;18.03;60.35;102202.38;5022795;28;20028;-68
2022/05/21 10:42:33;;;;;;;10.90;3.60;;;;;;;18.01;61.25;102209.25;4981922;28;20049;-66
2022/05/21 10:45:30;;;;;;;9.00;3.25;;;;;;;18.10;61.22;102201.63;5016856;28;20117;-69
2022/05/21 10:48:08;;;;;;;14.43;4.45;;;;;;;18.38;61.98;102202.97;5012008;28;20030;-70
2022/05/21 10:50:56;;;;;;;11.07;3.45;;;;;;;18.68;61.21;102203.50;5024508;28;20033;-69
2022/05/21 10:53:30;;;;;;;12.40;3.83;;;;;;;18.88;60.68;102206.47;5028492;28;20036;-68
2022/05/21 10:56:06;;;;;;;14.10;4.32;;;;;;;18.96;59.19;102202.22;5017629;28;20044;-68
2022/05/21 10:58:55;;;;;;;14.68;3.80;;;;;;;18.93;59.92;102202.19;5019330;28;20049;-69
2022/05/21 11:01:48;;;;;;;11.43;3.88;;;;;;;18.82;59.55;102195.94;5030640;28;20036;-68
2022/05/21 11:04:51;;;;;;;11.20;3.47;;;;;;;18.78;60.52;102203.69;5032370;28;20496;-68
2022/05/21 11:07:38;;;;;;;13.00;3.45;;;;;;;18.74;61.03;102202.75;5024583;28;20049;-69
2022/05/21 11:10:25;;;;;;;10.55;2.85;;;;;;;18.73;59.77;102208.81;5032828;28;20033;-68
2022/05/21 11:12:53;;;;;;;8.20;2.90;;;;;;;18.70;59.16;102207.03;5024622;28;20025;-69
2022/05/21 11:15:34;;;;;;;18.98;3.05;;;;;;;18.71;58.53;102221.81;5022632;28;20496;-68
2022/05/21 11:18:25;;;;;;;13.82;2.60;;;;;;;18.64;58.80;102214.72;5030005;28;20060;-68
2022/05/21 11:21:08;;;;;;;12.23;2.17;;;;;;;18.74;59.04;102223.59;5015927;28;20038;-68
2022/05/21 11:23:58;;;;;;;10.63;2.20;;;;;;;18.85;59.29;102213.34;5026060;28;22274;-66
2022/05/21 11:26:54;;;;;;;8.20;2.50;;;;;;;18.99;59.13;102211.84;5028473;28;20163;-68
2022/05/21 11:29:41;;;;;;;14.32;2.45;;;;;;;19.14;59.64;102213.78;5028007;28;20032;-68
2022/05/21 11:37:55;;;;;;;8.95;2.10;;;;;;;19.37;57.29;102204.53;5026142;28;20090;-70
2022/05/21 11:40:49;;;;;;;10.80;2.20;;;;;;;19.43;57.68;102208.97;5023068;28;20420;-69
2022/05/21 11:43:15;;;;;;;9.85;2.25;;;;;;;19.49;56.97;102207.31;5024574;28;20470;-72
2022/05/21 11:45:41;;;;;;;8.63;2.00;;;;;;;19.59;58.24;102200.47;5025355;28;20033;-71
2022/05/21 11:48:18;;;;;;;10.32;2.55;;;;;;;19.71;57.23;102198.00;5026949;28;20491;-70
2022/05/21 11:50:44;;;;;;;9.38;2.33;;;;;;;19.73;56.15;102204.16;5029724;28;20061;-70
2022/05/21 11:53:34;;;;;;;8.93;2.40;;;;;;;19.85;56.63;102205.16;5028819;28;20814;-70
2022/05/21 11:56:04;;;;;;;11.40;2.40;;;;;;;19.90;56.39;102196.50;5027095;28;20068;-70
2022/05/21 11:58:57;;;;;;;6.05;2.05;;;;;;;19.96;54.06;102200.91;5028979;28;20490;-70
2022/05/21 12:01:41;;;;;;;11.88;2.55;;;;;;;19.98;54.42;102205.28;5019227;28;20057;-70